createdAt,value
2024-05-09T00:00:10.467Z,101612.11
2024-05-09T00:01:08.680Z,101610.92
2024-05-09T00:02:09.618Z,101609.48
2024-05-09T00:03:11.318Z,101608.25
2024-05-09T00:04:10.662Z,101607.15
2024-05-09T00:05:11.540Z,101606.59
2024-05-09T00:06:11.705Z,101605.36
2024-05-09T00:07:12.426Z,101604.42
2024-05-09T00:08:13.391Z,101603.11
2024-05-09T00:08:22.114Z,101652.75
2024-05-09T00:09:22.451Z,101585.94
2024-05-09T00:10:32.619Z,101586.19
2024-05-09T00:11:24.066Z,101585.80
2024-05-09T00:12:24.818Z,101586.43
2024-05-09T00:13:24.844Z,101586.63
2024-05-09T00:14:25.173Z,101587.17
2024-05-09T00:15:25.799Z,101587.97
2024-05-09T00:16:26.900Z,101588.66
2024-05-09T00:17:26.661Z,101589.06
2024-05-09T00:18:27.344Z,101589.13
2024-05-09T00:19:27.407Z,101589.20
2024-05-09T00:20:36.236Z,101588.50
2024-05-09T00:21:28.785Z,101588.59
2024-05-09T00:22:28.837Z,101588.19
2024-05-09T00:23:29.876Z,101587.66
2024-05-09T00:24:30.268Z,101587.00
2024-05-09T00:25:30.917Z,101586.25
2024-05-09T00:26:31.582Z,101585.56
2024-05-09T00:27:32.496Z,101585.12
2024-05-09T00:28:33.510Z,101583.66
2024-05-09T00:29:33.555Z,101582.20
2024-05-09T00:30:36.280Z,101580.13
2024-05-09T00:31:34.014Z,101578.33
2024-05-09T00:32:35.905Z,101576.45
2024-05-09T00:33:34.997Z,101574.82
2024-05-09T00:34:34.938Z,101573.06
2024-05-09T00:34:44.369Z,101605.50
2024-05-09T00:35:44.682Z,101536.27
2024-05-09T00:36:44.761Z,101535.63
2024-05-09T00:37:44.807Z,101534.61
2024-05-09T00:38:45.121Z,101533.17
2024-05-09T00:39:45.959Z,101532.28
2024-05-09T00:40:46.631Z,101530.84
2024-05-09T00:41:46.680Z,101529.02
2024-05-09T00:42:47.141Z,101527.24
2024-05-09T00:43:47.238Z,101525.05
2024-05-09T00:44:48.082Z,101523.08
2024-05-09T00:45:49.559Z,101521.16
2024-05-09T00:46:49.238Z,101519.98
2024-05-09T00:47:50.375Z,101518.04
2024-05-09T00:48:50.885Z,101516.64
2024-05-09T00:49:51.507Z,101515.52
2024-05-09T00:50:51.475Z,101513.61
2024-05-09T00:51:52.275Z,101511.44
2024-05-09T00:52:53.045Z,101509.36
2024-05-09T00:53:53.272Z,101507.67
2024-05-09T00:54:53.715Z,101505.76
2024-05-09T00:55:54.377Z,101503.34
2024-05-09T00:56:55.350Z,101501.02
2024-05-09T00:57:55.339Z,101499.13
2024-05-09T00:58:55.814Z,101496.97
2024-05-09T00:59:56.304Z,101495.05
2024-05-09T01:00:56.536Z,101492.67
2024-05-09T01:01:57.596Z,101490.67
2024-05-09T01:02:06.246Z,101530.88
2024-05-09T01:03:07.511Z,101455.44
2024-05-09T01:04:07.815Z,101455.13
2024-05-09T01:05:08.802Z,101455.30
2024-05-09T01:06:08.843Z,101455.11
2024-05-09T01:07:09.859Z,101454.94
2024-05-09T01:08:10.823Z,101453.95
2024-05-09T01:09:10.905Z,101453.82
2024-05-09T01:10:17.044Z,101452.50
2024-05-09T01:11:11.204Z,101451.19
2024-05-09T01:12:12.152Z,101449.61
2024-05-09T01:13:12.662Z,101448.13
2024-05-09T01:14:13.220Z,101444.44
2024-05-09T01:15:13.784Z,101440.50
2024-05-09T01:16:13.848Z,101436.73
2024-05-09T01:17:14.691Z,101433.25
2024-05-09T01:18:15.759Z,101429.97
2024-05-09T01:19:15.845Z,101426.14
2024-05-09T01:20:20.307Z,101422.83
2024-05-09T01:21:16.995Z,101419.23
2024-05-09T01:22:17.881Z,101415.98
2024-05-09T01:23:18.016Z,101411.62
2024-05-09T01:24:18.244Z,101408.36
2024-05-09T01:25:18.634Z,101399.28
2024-05-09T01:26:19.447Z,101390.65
2024-05-09T01:27:19.811Z,101382.50
2024-05-09T01:28:20.037Z,101374.93
2024-05-09T01:29:20.420Z,101367.48
2024-05-09T01:30:27.985Z,101360.38
2024-05-09T01:31:22.076Z,101353.61
2024-05-09T01:31:30.766Z,101344.24
2024-05-09T01:32:31.077Z,101250.02
2024-05-09T01:33:32.060Z,101247.98
2024-05-09T01:34:32.210Z,101239.64
2024-05-09T01:35:33.065Z,101231.58
2024-05-09T01:36:33.060Z,101223.56
2024-05-09T01:37:33.965Z,101215.67
2024-05-09T01:38:34.069Z,101208.50
2024-05-09T01:39:34.841Z,101201.88
2024-05-09T01:40:38.742Z,101195.33
2024-05-09T01:41:35.901Z,101189.45
2024-05-09T01:42:36.590Z,101183.92
2024-05-09T01:43:36.664Z,101178.73
2024-05-09T01:44:36.795Z,101173.40
2024-05-09T01:45:37.684Z,101167.92
2024-05-09T01:46:37.914Z,101162.98
2024-05-09T01:47:38.521Z,101158.13
2024-05-09T01:48:39.071Z,101154.02
2024-05-09T01:49:40.050Z,101149.97
2024-05-09T01:50:42.863Z,101145.80
2024-05-09T01:51:41.127Z,101142.03
2024-05-09T01:52:41.437Z,101138.22
2024-05-09T01:53:41.445Z,101134.66
2024-05-09T01:54:41.648Z,101131.52
2024-05-09T01:55:41.874Z,101128.52
2024-05-09T01:56:41.981Z,101125.27
2024-05-09T01:57:42.376Z,101122.00
2024-05-09T01:58:42.775Z,101118.75
2024-05-09T01:58:52.517Z,101191.44
2024-05-09T01:59:53.452Z,101071.13
2024-05-09T02:00:53.505Z,101070.56
2024-05-09T02:01:57.013Z,101070.66
2024-05-09T02:02:54.677Z,101070.09
2024-05-09T02:03:55.217Z,101069.20
2024-05-09T02:04:55.937Z,101068.56
2024-05-09T02:05:56.607Z,101066.73
2024-05-09T02:06:56.832Z,101065.73
2024-05-09T02:07:56.977Z,101064.67
2024-05-09T02:08:56.930Z,101063.23
2024-05-09T02:09:57.635Z,101061.58
2024-05-09T02:10:58.584Z,101059.77
2024-05-09T02:11:59.239Z,101058.95
2024-05-09T02:12:59.860Z,101057.80
2024-05-09T02:14:00.292Z,101056.49
2024-05-09T02:15:00.942Z,101054.92
2024-05-09T02:16:01.751Z,101053.86
2024-05-09T02:17:02.686Z,101052.72
2024-05-09T02:18:03.532Z,101051.16
2024-05-09T02:19:03.375Z,101050.00
2024-05-09T02:20:03.702Z,101048.14
2024-05-09T02:21:04.481Z,101045.67
2024-05-09T02:22:05.276Z,101044.44
2024-05-09T02:22:13.927Z,101148.61
2024-05-09T02:23:14.543Z,101016.55
2024-05-09T02:24:15.437Z,101016.13
2024-05-09T02:25:16.273Z,101015.71
2024-05-09T02:26:17.278Z,101015.20
2024-05-09T02:27:18.266Z,101015.03
2024-05-09T02:28:17.872Z,101014.11
2024-05-09T02:29:17.994Z,101013.13
2024-05-09T02:30:26.196Z,101011.53
2024-05-09T02:31:18.830Z,101010.38
2024-05-09T02:32:19.192Z,101008.82
2024-05-09T02:33:20.197Z,101007.19
2024-05-09T02:34:20.966Z,101005.63
2024-05-09T02:35:21.601Z,101004.47
2024-05-09T02:36:22.069Z,101002.91
2024-05-09T02:37:22.447Z,101000.92
2024-05-09T02:38:22.918Z,100998.81
2024-05-09T02:39:23.841Z,100997.08
2024-05-09T02:40:33.285Z,100995.04
2024-05-09T02:41:24.944Z,100993.22
2024-05-09T02:42:24.935Z,100991.23
2024-05-09T02:43:25.388Z,100989.21
2024-05-09T02:44:25.692Z,100986.84
2024-05-09T02:45:26.485Z,100984.68
2024-05-09T02:46:26.870Z,100981.91
2024-05-09T02:47:27.392Z,100979.49
2024-05-09T02:48:28.268Z,100976.49
2024-05-09T02:49:28.192Z,100974.25
2024-05-09T02:49:37.528Z,101065.55
2024-05-09T02:50:39.888Z,100951.63
2024-05-09T02:51:38.858Z,100950.61
2024-05-09T02:52:39.802Z,100949.27
2024-05-09T02:53:40.296Z,100948.47
2024-05-09T02:54:41.128Z,100947.50
2024-05-09T02:55:43.433Z,100946.57
2024-05-09T02:56:42.650Z,100945.22
2024-05-09T02:57:42.720Z,100943.38
2024-05-09T02:58:42.754Z,100941.36
2024-05-09T02:59:43.712Z,100939.42
2024-05-09T03:00:44.814Z,100937.34
2024-05-09T03:01:44.743Z,100935.08
2024-05-09T03:02:45.219Z,100933.31
2024-05-09T03:03:45.478Z,100930.95
2024-05-09T03:04:45.802Z,100928.59
2024-05-09T03:05:46.216Z,100926.32
2024-05-09T03:06:45.927Z,100923.97
2024-05-09T03:07:46.039Z,100921.89
2024-05-09T03:08:46.740Z,100919.96
2024-05-09T03:09:46.929Z,100917.52
2024-05-09T03:10:47.118Z,100915.36
2024-05-09T03:11:48.131Z,100913.17
2024-05-09T03:12:48.379Z,100910.06
2024-05-09T03:13:49.275Z,100907.03
2024-05-09T03:14:49.938Z,100903.87
2024-05-09T03:15:50.649Z,100901.26
2024-05-09T03:15:59.269Z,100990.63
2024-05-09T03:16:59.979Z,100872.14
2024-05-09T03:18:01.326Z,100871.21
2024-05-09T03:19:01.076Z,100870.29
2024-05-09T03:20:02.135Z,100869.36
2024-05-09T03:21:01.625Z,100868.72
2024-05-09T03:22:02.333Z,100867.96
2024-05-09T03:23:03.376Z,100867.41
2024-05-09T03:24:03.102Z,100866.52
2024-05-09T03:25:03.724Z,100865.42
2024-05-09T03:26:04.388Z,100864.61
2024-05-09T03:27:04.533Z,100863.02
2024-05-09T03:28:05.498Z,100861.75
2024-05-09T03:29:06.086Z,100860.49
2024-05-09T03:30:07.584Z,100858.98
2024-05-09T03:31:07.287Z,100857.02
2024-05-09T03:32:07.809Z,100855.77
2024-05-09T03:33:08.369Z,100853.23
2024-05-09T03:34:08.420Z,100851.05
2024-05-09T03:35:09.339Z,100849.20
2024-05-09T03:36:11.395Z,100847.52
2024-05-09T03:37:11.014Z,100845.28
2024-05-09T03:38:13.045Z,100843.42
2024-05-09T03:39:12.292Z,100840.73
2024-05-09T03:40:20.277Z,100838.13
2024-05-09T03:41:13.647Z,100835.86
2024-05-09T03:42:14.143Z,100832.41
2024-05-09T03:43:14.647Z,100829.16
2024-05-09T03:43:24.279Z,100909.95
2024-05-09T03:44:24.514Z,100792.78
2024-05-09T03:45:25.341Z,100791.94
2024-05-09T03:46:25.854Z,100791.18
2024-05-09T03:47:26.748Z,100789.55
2024-05-09T03:48:27.464Z,100788.45
2024-05-09T03:49:28.124Z,100787.19
2024-05-09T03:50:33.752Z,100785.73
2024-05-09T03:51:29.453Z,100784.12
2024-05-09T03:52:30.265Z,100782.95
2024-05-09T03:53:30.789Z,100782.20
2024-05-09T03:54:31.283Z,100780.85
2024-05-09T03:55:31.857Z,100779.67
2024-05-09T03:56:32.367Z,100778.19
2024-05-09T03:57:32.845Z,100777.09
2024-05-09T03:58:33.559Z,100775.67
2024-05-09T03:59:33.900Z,100774.02
2024-05-09T04:00:38.220Z,100772.17
2024-05-09T04:01:35.168Z,100770.06
2024-05-09T04:02:35.633Z,100768.72
2024-05-09T04:03:36.081Z,100766.53
2024-05-09T04:04:36.261Z,100764.27
2024-05-09T04:05:36.442Z,100762.13
2024-05-09T04:06:36.385Z,100759.60
2024-05-09T04:07:36.917Z,100757.50
2024-05-09T04:08:37.608Z,100755.39
2024-05-09T04:09:38.448Z,100752.95
2024-05-09T04:10:38.653Z,100750.09
2024-05-09T04:10:47.326Z,100847.59
2024-05-09T04:11:48.299Z,100730.19
2024-05-09T04:12:49.132Z,100729.42
2024-05-09T04:13:50.069Z,100727.53
2024-05-09T04:14:50.176Z,100726.34
2024-05-09T04:15:51.129Z,100724.55
2024-05-09T04:16:51.892Z,100723.03
2024-05-09T04:17:52.772Z,100720.84
2024-05-09T04:18:52.949Z,100718.37
2024-05-09T04:19:53.434Z,100716.69
2024-05-09T04:20:53.509Z,100715.00
2024-05-09T04:21:53.611Z,100712.48
2024-05-09T04:22:54.605Z,100710.59
2024-05-09T04:23:55.305Z,100708.12
2024-05-09T04:24:56.753Z,100706.15
2024-05-09T04:25:55.792Z,100704.13
2024-05-09T04:26:56.429Z,100702.58
2024-05-09T04:27:57.112Z,100700.23
2024-05-09T04:28:57.724Z,100697.77
2024-05-09T04:29:57.741Z,100695.83
2024-05-09T04:30:57.816Z,100693.63
2024-05-09T04:31:58.524Z,100691.91
2024-05-09T04:32:58.722Z,100689.69
2024-05-09T04:33:59.133Z,100687.84
2024-05-09T04:34:59.276Z,100686.12
2024-05-09T04:35:59.789Z,100684.06
2024-05-09T04:37:00.766Z,100682.30
2024-05-09T04:37:09.430Z,100819.63
2024-05-09T04:38:10.490Z,100694.95
2024-05-09T04:39:10.546Z,100692.50
2024-05-09T04:40:20.468Z,100690.78
2024-05-09T04:41:12.284Z,100687.69
2024-05-09T04:42:13.008Z,100684.95
2024-05-09T04:43:13.077Z,100681.94
2024-05-09T04:44:13.508Z,100678.88
2024-05-09T04:45:13.676Z,100676.11
2024-05-09T04:46:14.223Z,100673.09
2024-05-09T04:47:14.318Z,100670.61
2024-05-09T04:48:15.438Z,100668.27
2024-05-09T04:49:15.589Z,100665.88
2024-05-09T04:50:24.631Z,100663.73
2024-05-09T04:51:15.824Z,100661.90
2024-05-09T04:52:16.611Z,100659.58
2024-05-09T04:53:18.153Z,100658.38
2024-05-09T04:54:26.400Z,100656.77
2024-05-09T04:55:17.256Z,100655.59
2024-05-09T04:56:17.421Z,100653.87
2024-05-09T04:57:17.965Z,100652.41
2024-05-09T04:58:18.275Z,100650.60
2024-05-09T04:59:18.397Z,100648.88
2024-05-09T05:00:28.087Z,100647.36
2024-05-09T05:01:18.510Z,100646.27
2024-05-09T05:02:19.428Z,100645.14
2024-05-09T05:03:20.015Z,100643.42
2024-05-09T05:04:21.312Z,100642.32
2024-05-09T05:05:21.150Z,100640.52
2024-05-09T05:06:21.943Z,100639.39
2024-05-09T05:06:31.475Z,100789.19
2024-05-09T05:07:31.559Z,100670.42
2024-05-09T05:08:32.545Z,100668.27
2024-05-09T05:09:32.542Z,100665.53
2024-05-09T05:10:35.948Z,100663.63
2024-05-09T05:11:32.756Z,100661.09
2024-05-09T05:12:33.384Z,100658.75
2024-05-09T05:13:33.767Z,100656.51
2024-05-09T05:14:34.805Z,100654.66
2024-05-09T05:15:34.995Z,100652.67
2024-05-09T05:16:35.155Z,100650.62
2024-05-09T05:17:36.031Z,100648.59
2024-05-09T05:18:36.500Z,100646.70
2024-05-09T05:19:36.814Z,100643.89
2024-05-09T05:20:37.229Z,100641.78
2024-05-09T05:21:37.572Z,100639.68
2024-05-09T05:22:38.142Z,100637.66
2024-05-09T05:23:38.706Z,100635.85
2024-05-09T05:24:39.046Z,100633.67
2024-05-09T05:25:39.463Z,100631.61
2024-05-09T05:26:40.299Z,100629.89
2024-05-09T05:27:40.186Z,100628.34
2024-05-09T05:28:40.300Z,100626.95
2024-05-09T05:29:40.383Z,100625.98
2024-05-09T05:30:40.715Z,100624.47
2024-05-09T05:31:41.107Z,100622.55
2024-05-09T05:32:41.940Z,100620.48
2024-05-09T05:33:42.105Z,100619.64
2024-05-09T05:33:50.712Z,100768.82
2024-05-09T05:34:51.481Z,100649.62
2024-05-09T05:35:51.742Z,100646.78
2024-05-09T05:36:52.643Z,100643.45
2024-05-09T05:37:53.540Z,100640.56
2024-05-09T05:38:54.497Z,100638.50
2024-05-09T05:39:55.302Z,100636.23
2024-05-09T05:40:55.580Z,100633.71
2024-05-09T05:41:56.067Z,100631.39
2024-05-09T05:42:56.719Z,100628.91
2024-05-09T05:43:57.832Z,100627.03
2024-05-09T05:44:56.810Z,100624.67
2024-05-09T05:45:57.712Z,100622.57
2024-05-09T05:46:58.510Z,100620.22
2024-05-09T05:47:58.792Z,100618.67
2024-05-09T05:48:59.089Z,100617.23
2024-05-09T05:49:59.790Z,100615.77
2024-05-09T05:51:01.875Z,100613.92
2024-05-09T05:51:59.999Z,100612.12
2024-05-09T05:53:00.794Z,100610.56
2024-05-09T05:54:01.568Z,100608.38
2024-05-09T05:55:02.375Z,100606.23
2024-05-09T05:56:03.270Z,100604.14
2024-05-09T05:57:04.036Z,100602.45
2024-05-09T05:58:05.114Z,100600.98
2024-05-09T05:59:05.349Z,100599.81
2024-05-09T06:00:09.528Z,100598.89
2024-05-09T06:01:06.613Z,100597.50
2024-05-09T06:01:16.258Z,100741.73
2024-05-09T06:02:16.964Z,100628.81
2024-05-09T06:03:17.512Z,100625.78
2024-05-09T06:04:17.688Z,100623.37
2024-05-09T06:05:17.992Z,100619.91
2024-05-09T06:06:18.299Z,100617.84
2024-05-09T06:07:18.314Z,100615.31
2024-05-09T06:08:18.489Z,100612.66
2024-05-09T06:09:19.099Z,100610.59
2024-05-09T06:10:25.409Z,100608.44
2024-05-09T06:11:20.391Z,100606.33
2024-05-09T06:12:20.690Z,100604.89
2024-05-09T06:13:20.540Z,100602.95
2024-05-09T06:14:21.396Z,100601.55
2024-05-09T06:15:21.640Z,100600.83
2024-05-09T06:16:22.428Z,100599.48
2024-05-09T06:17:22.631Z,100598.20
2024-05-09T06:18:23.382Z,100597.27
2024-05-09T06:19:23.569Z,100596.13
2024-05-09T06:20:33.922Z,100595.24
2024-05-09T06:21:24.877Z,100594.44
2024-05-09T06:22:25.017Z,100593.25
2024-05-09T06:23:25.849Z,100593.33
2024-05-09T06:24:26.450Z,100593.66
2024-05-09T06:25:27.252Z,100593.62
2024-05-09T06:26:28.023Z,100593.45
2024-05-09T06:27:28.839Z,100593.06
2024-05-09T06:28:29.409Z,100592.52
2024-05-09T06:29:30.414Z,100591.73
2024-05-09T06:29:39.020Z,100753.50
2024-05-09T06:30:41.838Z,100626.48
2024-05-09T06:31:39.595Z,100624.58
2024-05-09T06:32:39.928Z,100623.02
2024-05-09T06:33:40.988Z,100621.50
2024-05-09T06:34:41.289Z,100620.11
2024-05-09T06:35:42.057Z,100618.12
2024-05-09T06:36:42.376Z,100616.91
2024-05-09T06:37:43.151Z,100615.52
2024-05-09T06:38:43.311Z,100614.16
2024-05-09T06:39:43.304Z,100613.06
2024-05-09T06:40:44.804Z,100612.05
2024-05-09T06:41:44.997Z,100610.58
2024-05-09T06:42:45.061Z,100609.98
2024-05-09T06:43:45.649Z,100609.18
2024-05-09T06:44:46.418Z,100608.76
2024-05-09T06:45:47.881Z,100608.17
2024-05-09T06:46:48.213Z,100608.00
2024-05-09T06:47:49.098Z,100606.98
2024-05-09T06:48:49.973Z,100606.61
2024-05-09T06:49:50.354Z,100606.06
2024-05-09T06:50:51.656Z,100605.96
2024-05-09T06:51:51.073Z,100605.50
2024-05-09T06:52:51.456Z,100605.34
2024-05-09T06:53:51.602Z,100605.23
2024-05-09T06:54:52.535Z,100604.86
2024-05-09T06:55:53.384Z,100604.95
2024-05-09T06:56:54.198Z,100604.39
2024-05-09T06:57:03.838Z,100764.48
2024-05-09T06:58:04.327Z,100643.08
2024-05-09T06:59:05.243Z,100640.97
2024-05-09T07:00:08.210Z,100638.77
2024-05-09T07:01:06.025Z,100636.73
2024-05-09T07:02:06.896Z,100635.77
2024-05-09T07:03:07.203Z,100633.91
2024-05-09T07:04:07.884Z,100632.42
2024-05-09T07:05:07.828Z,100631.27
2024-05-09T07:06:08.549Z,100630.13
2024-05-09T07:07:09.297Z,100629.37
2024-05-09T07:08:10.511Z,100628.30
2024-05-09T07:09:11.094Z,100627.41
2024-05-09T07:10:21.587Z,100626.70
2024-05-09T07:11:12.954Z,100625.84
2024-05-09T07:12:14.034Z,100625.75
2024-05-09T07:13:14.463Z,100625.55
2024-05-09T07:14:14.598Z,100625.08
2024-05-09T07:15:14.588Z,100624.81
2024-05-09T07:16:16.137Z,100624.40
2024-05-09T07:17:15.248Z,100624.08
2024-05-09T07:18:17.558Z,100623.23
2024-05-09T07:19:16.843Z,100622.63
2024-05-09T07:20:23.643Z,100622.03
2024-05-09T07:21:18.232Z,100622.70
2024-05-09T07:22:18.491Z,100622.44
2024-05-09T07:23:18.842Z,100622.50
2024-05-09T07:23:28.399Z,100791.19
2024-05-09T07:24:29.016Z,100656.69
2024-05-09T07:25:30.162Z,100654.41
2024-05-09T07:26:30.095Z,100652.80
2024-05-09T07:27:30.425Z,100650.84
2024-05-09T07:28:30.741Z,100649.15
2024-05-09T07:29:33.454Z,100647.32
2024-05-09T07:30:34.390Z,100646.17
2024-05-09T07:31:32.774Z,100645.27
2024-05-09T07:32:33.369Z,100644.59
2024-05-09T07:33:33.344Z,100643.53
2024-05-09T07:34:33.502Z,100643.69
2024-05-09T07:35:34.358Z,100643.51
2024-05-09T07:36:34.928Z,100643.53
2024-05-09T07:37:35.303Z,100643.72
2024-05-09T07:38:36.328Z,100643.92
2024-05-09T07:39:37.041Z,100645.03
2024-05-09T07:40:37.712Z,100645.48
2024-05-09T07:41:38.537Z,100646.64
2024-05-09T07:42:38.742Z,100647.59
2024-05-09T07:43:39.051Z,100649.56
2024-05-09T07:44:39.835Z,100651.27
2024-05-09T07:45:50.339Z,100653.18
2024-05-09T07:47:47.789Z,100655.27
2024-05-09T07:49:12.436Z,100657.45
2024-05-09T07:51:31.971Z,100662.04
2024-05-09T07:52:38.148Z,100885.17
2024-05-09T07:53:21.652Z,100749.66
2024-05-09T07:53:58.302Z,100745.79
2024-05-09T07:54:56.715Z,100745.23
2024-05-09T07:55:57.412Z,100744.91
2024-05-09T07:56:57.921Z,100744.85
2024-05-09T07:57:58.537Z,100745.95
2024-05-09T07:58:59.149Z,100746.73
2024-05-09T08:00:00.398Z,100748.46
2024-05-09T08:01:01.437Z,100750.23
2024-05-09T08:02:00.777Z,100752.32
2024-05-09T08:03:01.321Z,100754.89
2024-05-09T08:04:02.344Z,100758.01
2024-05-09T08:05:03.026Z,100762.05
2024-05-09T08:06:03.605Z,100766.19
2024-05-09T08:07:04.516Z,100772.02
2024-05-09T08:08:05.362Z,100777.72
2024-05-09T08:09:11.098Z,100784.06
2024-05-09T08:10:10.657Z,100789.97
2024-05-09T08:11:07.756Z,100795.95
2024-05-09T08:12:08.059Z,100804.66
2024-05-09T08:13:09.660Z,100814.78
2024-05-09T08:14:09.295Z,100824.44
2024-05-09T08:15:11.054Z,100834.14
2024-05-09T08:16:10.731Z,100844.20
2024-05-09T08:17:11.435Z,100853.45
2024-05-09T08:18:12.340Z,100863.98
2024-05-09T08:19:12.554Z,100874.22
2024-05-09T08:19:21.211Z,101183.64
2024-05-09T08:20:30.286Z,101043.83
2024-05-09T08:21:23.419Z,101047.64
2024-05-09T08:22:22.942Z,101049.46
2024-05-09T08:23:23.227Z,101052.51
2024-05-09T08:24:24.030Z,101056.72
2024-05-09T08:25:24.850Z,101064.97
2024-05-09T08:26:25.678Z,101074.86
2024-05-09T08:27:26.509Z,101084.80
2024-05-09T08:28:27.415Z,101095.19
2024-05-09T08:29:27.557Z,101105.45
2024-05-09T08:30:33.260Z,101117.23
2024-05-09T08:31:29.160Z,101129.45
2024-05-09T08:32:29.289Z,101143.44
2024-05-09T08:33:29.940Z,101159.86
2024-05-09T08:34:30.599Z,101179.92
2024-05-09T08:35:31.304Z,101200.28
2024-05-09T08:36:32.006Z,101220.77
2024-05-09T08:37:36.875Z,101243.50
2024-05-09T08:38:32.956Z,101268.63
2024-05-09T08:39:33.652Z,101292.61
2024-05-09T08:40:36.193Z,101317.39
2024-05-09T08:41:33.781Z,101343.05
2024-05-09T08:42:34.656Z,101369.44
2024-05-09T08:43:36.786Z,101396.04
2024-05-09T08:44:35.900Z,101421.70
2024-05-09T08:44:43.557Z,101930.05
2024-05-09T08:45:45.450Z,101834.50
2024-05-09T08:46:44.466Z,101835.19
2024-05-09T08:47:44.801Z,101837.66
2024-05-09T08:48:45.456Z,101840.98
2024-05-09T08:49:46.141Z,101844.59
2024-05-09T08:50:46.913Z,101849.19
2024-05-09T08:51:47.600Z,101856.50
2024-05-09T08:52:47.643Z,101865.67
2024-05-09T08:53:48.540Z,101873.69
2024-05-09T08:54:49.069Z,101881.82
2024-05-09T08:55:49.667Z,101890.98
2024-05-09T08:56:50.105Z,101901.20
2024-05-09T08:57:50.900Z,101911.04
2024-05-09T08:58:51.524Z,101922.23
2024-05-09T08:59:51.809Z,101934.89
2024-05-09T09:00:52.129Z,101946.48
2024-05-09T09:01:52.771Z,101957.59
2024-05-09T09:02:52.826Z,101967.58
2024-05-09T09:03:53.110Z,101976.65
2024-05-09T09:04:52.973Z,101985.55
2024-05-09T09:05:53.921Z,101995.43
2024-05-09T09:06:57.243Z,102005.40
2024-05-09T09:07:54.319Z,102015.11
2024-05-09T09:08:54.400Z,102026.08
2024-05-09T09:09:54.459Z,102034.93
2024-05-09T09:10:55.382Z,102045.00
2024-05-09T09:11:55.326Z,102055.89
2024-05-09T09:12:08.672Z,102295.33
2024-05-09T09:13:07.596Z,102260.41
2024-05-09T09:14:07.523Z,102268.99
2024-05-09T09:15:08.690Z,102278.08
2024-05-09T09:16:08.218Z,102287.09
2024-05-09T09:17:08.548Z,102296.09
2024-05-09T09:18:11.716Z,102305.11
2024-05-09T09:19:09.659Z,102313.98
2024-05-09T09:20:14.270Z,102322.60
2024-05-09T09:21:09.668Z,102330.63
2024-05-09T09:22:10.840Z,102338.77
2024-05-09T09:23:11.478Z,102345.98
2024-05-09T09:24:12.303Z,102353.16
2024-05-09T09:25:13.122Z,102360.96
2024-05-09T09:26:13.381Z,102368.47
2024-05-09T09:27:13.931Z,102374.83
2024-05-09T09:28:14.664Z,102381.36
2024-05-09T09:29:15.269Z,102387.63
2024-05-09T09:30:27.647Z,102393.11
2024-05-09T09:31:16.003Z,102398.69
2024-05-09T09:32:16.007Z,102403.77
2024-05-09T09:33:16.990Z,102408.25
2024-05-09T09:34:17.816Z,102413.03
2024-05-09T09:35:18.075Z,102418.57
2024-05-09T09:36:18.459Z,102423.70
2024-05-09T09:37:19.152Z,102428.14
2024-05-09T09:38:19.933Z,102432.35
2024-05-09T09:38:28.556Z,102500.89
2024-05-09T09:39:29.179Z,102481.16
2024-05-09T09:40:32.915Z,102481.41
2024-05-09T09:41:29.939Z,102482.34
2024-05-09T09:42:30.040Z,102483.63
2024-05-09T09:43:30.885Z,102484.05
2024-05-09T09:44:32.277Z,102484.81
2024-05-09T09:45:32.082Z,102486.73
2024-05-09T09:46:32.783Z,102488.27
2024-05-09T09:47:33.350Z,102489.58
2024-05-09T09:48:33.779Z,102491.41
2024-05-09T09:49:34.505Z,102492.84
2024-05-09T09:50:35.533Z,102494.94
2024-05-09T09:51:35.602Z,102496.80
2024-05-09T09:52:35.959Z,102497.86
2024-05-09T09:53:36.099Z,102499.98
2024-05-09T09:54:36.557Z,102501.77
2024-05-09T09:55:36.786Z,102503.75
2024-05-09T09:56:36.794Z,102505.56
2024-05-09T09:57:36.903Z,102507.94
2024-05-09T09:58:37.740Z,102509.67
2024-05-09T09:59:37.906Z,102511.87
2024-05-09T10:00:38.994Z,102514.05
2024-05-09T10:01:39.012Z,102516.45
2024-05-09T10:02:39.609Z,102518.77
2024-05-09T10:03:40.105Z,102521.52
2024-05-09T10:04:40.550Z,102524.95
2024-05-09T10:05:43.910Z,102528.19
2024-05-09T10:05:51.261Z,102585.38
2024-05-09T10:06:51.324Z,102569.73
2024-05-09T10:07:52.078Z,102569.48
2024-05-09T10:08:53.070Z,102569.64
2024-05-09T10:09:53.715Z,102569.48
2024-05-09T10:10:54.080Z,102570.20
2024-05-09T10:11:59.925Z,102571.16
2024-05-09T10:12:55.678Z,102571.16
2024-05-09T10:13:55.934Z,102570.55
2024-05-09T10:14:57.267Z,102570.95
2024-05-09T10:15:56.765Z,102571.02
2024-05-09T10:16:57.364Z,102571.64
2024-05-09T10:17:57.463Z,102572.19
2024-05-09T10:18:58.049Z,102572.45
2024-05-09T10:19:58.714Z,102572.63
2024-05-09T10:20:58.993Z,102572.52
2024-05-09T10:21:59.226Z,102572.25
2024-05-09T10:22:59.436Z,102572.37
2024-05-09T10:24:00.099Z,102572.56
2024-05-09T10:25:02.124Z,102572.48
2024-05-09T10:26:00.932Z,102572.69
2024-05-09T10:27:01.779Z,102573.59
2024-05-09T10:28:02.242Z,102575.45
2024-05-09T10:29:03.072Z,102575.73
2024-05-09T10:30:06.904Z,102575.75
2024-05-09T10:31:03.981Z,102576.23
2024-05-09T10:32:04.711Z,102576.81
2024-05-09T10:32:13.387Z,102599.66
2024-05-09T10:33:13.630Z,102589.30
2024-05-09T10:34:14.054Z,102589.91
2024-05-09T10:35:14.909Z,102590.19
2024-05-09T10:36:15.538Z,102591.36
2024-05-09T10:37:16.108Z,102592.35
2024-05-09T10:38:17.046Z,102593.78
2024-05-09T10:39:17.269Z,102594.59
2024-05-09T10:40:25.763Z,102595.23
2024-05-09T10:41:17.768Z,102595.75
2024-05-09T10:42:18.330Z,102596.72
2024-05-09T10:43:18.758Z,102596.45
2024-05-09T10:44:19.316Z,102597.18
2024-05-09T10:45:21.301Z,102597.41
2024-05-09T10:46:20.559Z,102597.62
2024-05-09T10:47:20.708Z,102597.48
2024-05-09T10:48:21.081Z,102597.20
2024-05-09T10:49:21.880Z,102596.88
2024-05-09T10:50:28.349Z,102596.37
2024-05-09T10:51:23.209Z,102595.80
2024-05-09T10:52:23.348Z,102595.50
2024-05-09T10:53:24.276Z,102594.58
2024-05-09T10:54:25.059Z,102594.05
2024-05-09T10:55:25.422Z,102592.50
2024-05-09T10:56:26.103Z,102591.73
2024-05-09T10:57:26.097Z,102590.78
2024-05-09T10:58:26.498Z,102589.70
2024-05-09T10:58:38.139Z,102568.12
2024-05-09T10:59:39.041Z,102574.46
2024-05-09T11:00:39.576Z,102573.85
2024-05-09T11:01:39.922Z,102574.04
2024-05-09T11:02:40.958Z,102573.97
2024-05-09T11:03:41.976Z,102574.06
2024-05-09T11:04:42.150Z,102573.11
2024-05-09T11:05:42.333Z,102573.11
2024-05-09T11:06:43.116Z,102572.73
2024-05-09T11:07:43.254Z,102572.37
2024-05-09T11:08:44.563Z,102572.33
2024-05-09T11:09:43.763Z,102571.24
2024-05-09T11:10:43.970Z,102570.97
2024-05-09T11:11:44.037Z,102570.41